sensor_id;sensor_type;location;lat;lon;timestamp;temperature;humidity
14349;DHT22;7258;50.376;8.742;2023-07-09T00:01:23;23.60;90.80
14349;DHT22;7258;50.376;8.742;2023-07-09T00:03:26;23.50;90.40
14349;DHT22;7258;50.376;8.742;2023-07-09T00:05:29;23.50;90.40
14349;DHT22;7258;50.376;8.742;2023-07-09T00:07:32;23.40;90.30
14349;DHT22;7258;50.376;8.742;2023-07-09T00:09:36;23.40;90.70
14349;DHT22;7258;50.376;8.742;2023-07-09T00:11:40;23.20;91.00
14349;DHT22;7258;50.376;8.742;2023-07-09T00:13:43;23.10;91.40
14349;DHT22;7258;50.376;8.742;2023-07-09T00:15:46;23.10;91.60
14349;DHT22;7258;50.376;8.742;2023-07-09T00:17:49;23.00;91.70
14349;DHT22;7258;50.376;8.742;2023-07-09T00:19:53;22.90;91.80
14349;DHT22;7258;50.376;8.742;2023-07-09T00:21:55;22.90;91.80
14349;DHT22;7258;50.376;8.742;2023-07-09T00:23:57;22.80;91.90
14349;DHT22;7258;50.376;8.742;2023-07-09T00:26:09;22.80;92.00
14349;DHT22;7258;50.376;8.742;2023-07-09T00:28:13;22.70;92.00
14349;DHT22;7258;50.376;8.742;2023-07-09T00:30:18;22.60;92.10
14349;DHT22;7258;50.376;8.742;2023-07-09T00:32:21;22.50;92.30
14349;DHT22;7258;50.376;8.742;2023-07-09T00:34:26;22.40;92.80
14349;DHT22;7258;50.376;8.742;2023-07-09T00:36:30;22.30;92.70
14349;DHT22;7258;50.376;8.742;2023-07-09T00:38:34;22.30;92.80
14349;DHT22;7258;50.376;8.742;2023-07-09T00:40:46;22.30;92.90
14349;DHT22;7258;50.376;8.742;2023-07-09T00:42:53;22.30;92.90
14349;DHT22;7258;50.376;8.742;2023-07-09T00:44:56;22.30;92.90
14349;DHT22;7258;50.376;8.742;2023-07-09T00:47:21;22.20;92.80
14349;DHT22;7258;50.376;8.742;2023-07-09T00:49:28;22.10;93.20
14349;DHT22;7258;50.376;8.742;2023-07-09T00:51:34;22.00;93.30
14349;DHT22;7258;50.376;8.742;2023-07-09T00:53:40;21.90;93.50
14349;DHT22;7258;50.376;8.742;2023-07-09T00:55:51;21.80;93.70
14349;DHT22;7258;50.376;8.742;2023-07-09T00:57:59;21.80;93.90
14349;DHT22;7258;50.376;8.742;2023-07-09T01:00:07;21.70;93.80
14349;DHT22;7258;50.376;8.742;2023-07-09T01:02:13;21.70;94.10
14349;DHT22;7258;50.376;8.742;2023-07-09T01:04:17;21.60;94.30
14349;DHT22;7258;50.376;8.742;2023-07-09T01:06:28;21.60;94.40
14349;DHT22;7258;50.376;8.742;2023-07-09T01:08:35;21.60;94.60
14349;DHT22;7258;50.376;8.742;2023-07-09T01:10:38;21.60;94.70
14349;DHT22;7258;50.376;8.742;2023-07-09T01:12:42;21.50;94.80
14349;DHT22;7258;50.376;8.742;2023-07-09T01:14:46;21.50;94.80
14349;DHT22;7258;50.376;8.742;2023-07-09T01:16:57;21.40;95.00
14349;DHT22;7258;50.376;8.742;2023-07-09T01:19:01;21.40;95.20
14349;DHT22;7258;50.376;8.742;2023-07-09T01:21:10;21.30;95.30
14349;DHT22;7258;50.376;8.742;2023-07-09T01:23:17;21.30;95.40
14349;DHT22;7258;50.376;8.742;2023-07-09T01:25:19;21.30;95.50
14349;DHT22;7258;50.376;8.742;2023-07-09T01:27:24;21.30;95.60
14349;DHT22;7258;50.376;8.742;2023-07-09T01:29:30;21.20;95.60
14349;DHT22;7258;50.376;8.742;2023-07-09T01:31:33;21.20;95.70
14349;DHT22;7258;50.376;8.742;2023-07-09T01:33:37;21.20;95.80
14349;DHT22;7258;50.376;8.742;2023-07-09T01:35:41;21.10;95.90
14349;DHT22;7258;50.376;8.742;2023-07-09T01:37:46;21.10;96.00
14349;DHT22;7258;50.376;8.742;2023-07-09T01:39:49;21.10;96.10
14349;DHT22;7258;50.376;8.742;2023-07-09T01:41:52;21.00;96.20
14349;DHT22;7258;50.376;8.742;2023-07-09T01:43:55;21.00;96.30
14349;DHT22;7258;50.376;8.742;2023-07-09T01:45:59;20.90;96.50
14349;DHT22;7258;50.376;8.742;2023-07-09T01:48:03;20.90;96.50
14349;DHT22;7258;50.376;8.742;2023-07-09T01:50:07;20.80;96.70
14349;DHT22;7258;50.376;8.742;2023-07-09T01:52:09;20.80;96.80
14349;DHT22;7258;50.376;8.742;2023-07-09T01:54:15;20.80;96.70
14349;DHT22;7258;50.376;8.742;2023-07-09T01:56:18;20.80;96.80
14349;DHT22;7258;50.376;8.742;2023-07-09T01:58:21;20.80;96.90
14349;DHT22;7258;50.376;8.742;2023-07-09T02:00:26;20.80;97.00
14349;DHT22;7258;50.376;8.742;2023-07-09T02:02:29;20.70;97.10
14349;DHT22;7258;50.376;8.742;2023-07-09T02:04:34;20.70;97.20
14349;DHT22;7258;50.376;8.742;2023-07-09T02:06:36;20.60;97.50
14349;DHT22;7258;50.376;8.742;2023-07-09T02:08:39;20.60;98.00
14349;DHT22;7258;50.376;8.742;2023-07-09T02:10:45;20.60;98.40
14349;DHT22;7258;50.376;8.742;2023-07-09T02:12:48;20.50;98.40
14349;DHT22;7258;50.376;8.742;2023-07-09T02:14:51;20.50;98.50
14349;DHT22;7258;50.376;8.742;2023-07-09T02:16:54;20.40;98.60
14349;DHT22;7258;50.376;8.742;2023-07-09T02:18:57;20.40;98.60
14349;DHT22;7258;50.376;8.742;2023-07-09T02:20:59;20.40;98.60
14349;DHT22;7258;50.376;8.742;2023-07-09T02:23:03;20.30;98.60
14349;DHT22;7258;50.376;8.742;2023-07-09T02:25:07;20.30;98.60
14349;DHT22;7258;50.376;8.742;2023-07-09T02:27:17;20.20;98.70
14349;DHT22;7258;50.376;8.742;2023-07-09T02:29:20;20.20;99.10
14349;DHT22;7258;50.376;8.742;2023-07-09T02:31:22;20.10;99.20
14349;DHT22;7258;50.376;8.742;2023-07-09T02:33:25;20.10;99.30
14349;DHT22;7258;50.376;8.742;2023-07-09T02:35:28;20.10;99.40
14349;DHT22;7258;50.376;8.742;2023-07-09T02:37:31;20.00;99.70
14349;DHT22;7258;50.376;8.742;2023-07-09T02:39:33;19.90;99.90
14349;DHT22;7258;50.376;8.742;2023-07-09T02:41:36;19.90;99.90
14349;DHT22;7258;50.376;8.742;2023-07-09T02:43:40;19.90;99.90
14349;DHT22;7258;50.376;8.742;2023-07-09T02:45:43;19.90;99.90
14349;DHT22;7258;50.376;8.742;2023-07-09T02:47:46;19.80;99.90
14349;DHT22;7258;50.376;8.742;2023-07-09T02:49:49;19.80;99.90
14349;DHT22;7258;50.376;8.742;2023-07-09T02:51:52;19.80;99.90
14349;DHT22;7258;50.376;8.742;2023-07-09T02:53:55;19.80;99.90
14349;DHT22;7258;50.376;8.742;2023-07-09T02:55:59;19.70;99.90
14349;DHT22;7258;50.376;8.742;2023-07-09T02:58:02;19.70;99.90
14349;DHT22;7258;50.376;8.742;2023-07-09T03:00:08;19.60;99.90
14349;DHT22;7258;50.376;8.742;2023-07-09T03:02:11;19.60;99.90
14349;DHT22;7258;50.376;8.742;2023-07-09T03:04:15;19.50;99.90
14349;DHT22;7258;50.376;8.742;2023-07-09T03:06:19;19.50;99.90
14349;DHT22;7258;50.376;8.742;2023-07-09T03:08:22;19.50;99.90
14349;DHT22;7258;50.376;8.742;2023-07-09T03:10:27;19.50;99.90
14349;DHT22;7258;50.376;8.742;2023-07-09T03:12:30;19.40;99.90
14349;DHT22;7258;50.376;8.742;2023-07-09T03:14:33;19.50;99.90
14349;DHT22;7258;50.376;8.742;2023-07-09T03:16:37;19.40;99.90
14349;DHT22;7258;50.376;8.742;2023-07-09T03:18:41;19.40;99.90
14349;DHT22;7258;50.376;8.742;2023-07-09T03:20:43;19.40;99.90
14349;DHT22;7258;50.376;8.742;2023-07-09T03:22:46;19.40;99.90
14349;DHT22;7258;50.376;8.742;2023-07-09T03:24:49;19.30;99.90
14349;DHT22;7258;50.376;8.742;2023-07-09T03:26:52;19.30;99.90
14349;DHT22;7258;50.376;8.742;2023-07-09T03:28:55;19.40;99.90
14349;DHT22;7258;50.376;8.742;2023-07-09T03:30:58;19.40;99.90
14349;DHT22;7258;50.376;8.742;2023-07-09T03:33:02;19.40;99.90
14349;DHT22;7258;50.376;8.742;2023-07-09T03:35:06;19.40;99.90
14349;DHT22;7258;50.376;8.742;2023-07-09T03:37:10;19.30;99.90
14349;DHT22;7258;50.376;8.742;2023-07-09T03:39:13;19.30;99.90
14349;DHT22;7258;50.376;8.742;2023-07-09T03:41:16;19.30;99.90
14349;DHT22;7258;50.376;8.742;2023-07-09T03:43:19;19.30;99.90
14349;DHT22;7258;50.376;8.742;2023-07-09T03:45:22;19.30;99.90
14349;DHT22;7258;50.376;8.742;2023-07-09T03:47:25;19.30;99.90
14349;DHT22;7258;50.376;8.742;2023-07-09T03:49:29;19.30;99.90
14349;DHT22;7258;50.376;8.742;2023-07-09T03:51:32;19.40;99.90
14349;DHT22;7258;50.376;8.742;2023-07-09T03:53:35;19.40;99.90
14349;DHT22;7258;50.376;8.742;2023-07-09T03:55:38;19.40;99.90
14349;DHT22;7258;50.376;8.742;2023-07-09T03:57:41;19.40;99.90
14349;DHT22;7258;50.376;8.742;2023-07-09T03:59:44;19.40;99.90
14349;DHT22;7258;50.376;8.742;2023-07-09T04:01:47;19.40;99.90
14349;DHT22;7258;50.376;8.742;2023-07-09T04:03:50;19.40;99.90
14349;DHT22;7258;50.376;8.742;2023-07-09T04:05:56;19.40;99.90
14349;DHT22;7258;50.376;8.742;2023-07-09T04:07:58;19.40;99.90
14349;DHT22;7258;50.376;8.742;2023-07-09T04:10:02;19.40;99.90
14349;DHT22;7258;50.376;8.742;2023-07-09T04:12:06;19.50;99.90
14349;DHT22;7258;50.376;8.742;2023-07-09T04:14:09;19.50;99.90
14349;DHT22;7258;50.376;8.742;2023-07-09T04:16:12;19.50;99.90
14349;DHT22;7258;50.376;8.742;2023-07-09T04:18:15;19.50;99.90
14349;DHT22;7258;50.376;8.742;2023-07-09T04:20:18;19.50;99.90
14349;DHT22;7258;50.376;8.742;2023-07-09T04:22:22;19.50;99.90
14349;DHT22;7258;50.376;8.742;2023-07-09T04:24:25;19.50;99.90
14349;DHT22;7258;50.376;8.742;2023-07-09T04:26:28;19.60;99.90
14349;DHT22;7258;50.376;8.742;2023-07-09T04:28:31;19.60;99.90
14349;DHT22;7258;50.376;8.742;2023-07-09T04:30:34;19.60;99.90
14349;DHT22;7258;50.376;8.742;2023-07-09T04:32:37;19.60;99.90
14349;DHT22;7258;50.376;8.742;2023-07-09T04:34:40;19.60;99.90
14349;DHT22;7258;50.376;8.742;2023-07-09T04:36:44;19.70;99.90
14349;DHT22;7258;50.376;8.742;2023-07-09T04:38:48;19.70;99.90
14349;DHT22;7258;50.376;8.742;2023-07-09T04:40:51;19.70;99.90
14349;DHT22;7258;50.376;8.742;2023-07-09T04:42:54;19.80;99.90
14349;DHT22;7258;50.376;8.742;2023-07-09T04:44:57;19.80;99.90
14349;DHT22;7258;50.376;8.742;2023-07-09T04:46:59;19.80;99.90
14349;DHT22;7258;50.376;8.742;2023-07-09T04:49:03;19.90;99.90
14349;DHT22;7258;50.376;8.742;2023-07-09T04:51:06;20.00;99.90
14349;DHT22;7258;50.376;8.742;2023-07-09T04:53:09;20.00;99.90
14349;DHT22;7258;50.376;8.742;2023-07-09T04:55:14;20.10;99.90
14349;DHT22;7258;50.376;8.742;2023-07-09T04:57:20;20.20;99.90
14349;DHT22;7258;50.376;8.742;2023-07-09T04:59:23;20.30;99.90
14349;DHT22;7258;50.376;8.742;2023-07-09T05:01:26;20.30;99.90
14349;DHT22;7258;50.376;8.742;2023-07-09T05:03:29;20.40;99.90
14349;DHT22;7258;50.376;8.742;2023-07-09T05:05:32;20.40;99.90
14349;DHT22;7258;50.376;8.742;2023-07-09T05:07:34;20.50;99.90
14349;DHT22;7258;50.376;8.742;2023-07-09T05:09:38;20.60;99.90
14349;DHT22;7258;50.376;8.742;2023-07-09T05:11:42;20.60;99.90
14349;DHT22;7258;50.376;8.742;2023-07-09T05:13:45;20.70;99.90
14349;DHT22;7258;50.376;8.742;2023-07-09T05:15:49;20.70;99.90
14349;DHT22;7258;50.376;8.742;2023-07-09T05:17:52;20.70;99.90
14349;DHT22;7258;50.376;8.742;2023-07-09T05:19:55;20.80;99.90
14349;DHT22;7258;50.376;8.742;2023-07-09T05:21:58;20.90;99.90
14349;DHT22;7258;50.376;8.742;2023-07-09T05:24:01;20.90;99.90
14349;DHT22;7258;50.376;8.742;2023-07-09T05:26:03;21.00;99.90
14349;DHT22;7258;50.376;8.742;2023-07-09T05:28:09;21.00;99.90
14349;DHT22;7258;50.376;8.742;2023-07-09T05:30:12;21.10;99.90
14349;DHT22;7258;50.376;8.742;2023-07-09T05:32:15;21.20;99.90
14349;DHT22;7258;50.376;8.742;2023-07-09T05:34:20;21.30;99.90
14349;DHT22;7258;50.376;8.742;2023-07-09T05:36:23;21.40;99.90
14349;DHT22;7258;50.376;8.742;2023-07-09T05:38:26;21.50;99.90
14349;DHT22;7258;50.376;8.742;2023-07-09T05:40:28;21.60;99.90
14349;DHT22;7258;50.376;8.742;2023-07-09T05:42:32;21.70;99.70
14349;DHT22;7258;50.376;8.742;2023-07-09T05:44:39;21.80;99.50
14349;DHT22;7258;50.376;8.742;2023-07-09T05:46:42;21.90;99.30
14349;DHT22;7258;50.376;8.742;2023-07-09T05:48:45;22.10;99.20
14349;DHT22;7258;50.376;8.742;2023-07-09T05:50:52;22.20;99.10
14349;DHT22;7258;50.376;8.742;2023-07-09T05:52:55;22.30;98.90
14349;DHT22;7258;50.376;8.742;2023-07-09T05:54:58;22.40;98.40
14349;DHT22;7258;50.376;8.742;2023-07-09T05:57:01;22.60;98.20
14349;DHT22;7258;50.376;8.742;2023-07-09T05:59:04;22.80;98.30
14349;DHT22;7258;50.376;8.742;2023-07-09T06:01:08;22.90;97.70
14349;DHT22;7258;50.376;8.742;2023-07-09T06:03:11;23.00;97.40
14349;DHT22;7258;50.376;8.742;2023-07-09T06:05:14;23.20;97.30
14349;DHT22;7258;50.376;8.742;2023-07-09T06:07:17;23.30;96.90
14349;DHT22;7258;50.376;8.742;2023-07-09T06:09:20;23.50;96.70
14349;DHT22;7258;50.376;8.742;2023-07-09T06:11:23;23.60;96.20
14349;DHT22;7258;50.376;8.742;2023-07-09T06:13:27;23.80;96.10
14349;DHT22;7258;50.376;8.742;2023-07-09T06:15:33;24.00;95.80
14349;DHT22;7258;50.376;8.742;2023-07-09T06:17:37;24.10;95.40
14349;DHT22;7258;50.376;8.742;2023-07-09T06:19:40;24.20;95.10
14349;DHT22;7258;50.376;8.742;2023-07-09T06:21:43;24.40;94.80
14349;DHT22;7258;50.376;8.742;2023-07-09T06:23:46;24.50;94.60
14349;DHT22;7258;50.376;8.742;2023-07-09T06:25:49;24.60;94.30
14349;DHT22;7258;50.376;8.742;2023-07-09T06:27:52;24.70;94.20
14349;DHT22;7258;50.376;8.742;2023-07-09T06:29:55;24.80;94.00
14349;DHT22;7258;50.376;8.742;2023-07-09T06:31:58;24.90;93.80
14349;DHT22;7258;50.376;8.742;2023-07-09T06:34:02;24.90;93.80
14349;DHT22;7258;50.376;8.742;2023-07-09T06:36:05;24.90;93.70
14349;DHT22;7258;50.376;8.742;2023-07-09T06:38:08;25.00;93.70
14349;DHT22;7258;50.376;8.742;2023-07-09T06:40:11;25.20;93.50
14349;DHT22;7258;50.376;8.742;2023-07-09T06:42:14;25.30;93.10
14349;DHT22;7258;50.376;8.742;2023-07-09T06:44:17;25.30;92.80
14349;DHT22;7258;50.376;8.742;2023-07-09T06:46:20;25.30;93.00
14349;DHT22;7258;50.376;8.742;2023-07-09T06:48:24;25.30;93.00
14349;DHT22;7258;50.376;8.742;2023-07-09T06:50:28;25.40;92.90
14349;DHT22;7258;50.376;8.742;2023-07-09T06:52:32;25.60;92.90
14349;DHT22;7258;50.376;8.742;2023-07-09T06:54:34;25.70;92.70
14349;DHT22;7258;50.376;8.742;2023-07-09T06:56:37;25.80;92.30
14349;DHT22;7258;50.376;8.742;2023-07-09T06:58:40;26.00;92.30
14349;DHT22;7258;50.376;8.742;2023-07-09T07:00:43;26.10;92.20
14349;DHT22;7258;50.376;8.742;2023-07-09T07:02:46;26.20;91.90
14349;DHT22;7258;50.376;8.742;2023-07-09T07:04:49;26.30;91.80
14349;DHT22;7258;50.376;8.742;2023-07-09T07:06:53;26.30;91.80
14349;DHT22;7258;50.376;8.742;2023-07-09T07:08:57;26.40;91.70
14349;DHT22;7258;50.376;8.742;2023-07-09T07:11:02;26.40;91.60
14349;DHT22;7258;50.376;8.742;2023-07-09T07:13:05;26.60;91.60
14349;DHT22;7258;50.376;8.742;2023-07-09T07:15:09;26.70;91.40
14349;DHT22;7258;50.376;8.742;2023-07-09T07:17:12;26.90;91.20
14349;DHT22;7258;50.376;8.742;2023-07-09T07:19:16;27.00;90.90
14349;DHT22;7258;50.376;8.742;2023-07-09T07:21:18;27.10;90.80
14349;DHT22;7258;50.376;8.742;2023-07-09T07:23:23;27.10;90.60
14349;DHT22;7258;50.376;8.742;2023-07-09T07:25:25;27.10;90.70
14349;DHT22;7258;50.376;8.742;2023-07-09T07:27:28;27.20;90.70
14349;DHT22;7258;50.376;8.742;2023-07-09T07:29:31;27.30;90.50
14349;DHT22;7258;50.376;8.742;2023-07-09T07:31:34;27.50;90.30
14349;DHT22;7258;50.376;8.742;2023-07-09T07:33:39;27.60;90.60
14349;DHT22;7258;50.376;8.742;2023-07-09T07:35:43;27.70;90.20
14349;DHT22;7258;50.376;8.742;2023-07-09T07:38:05;27.80;90.20
14349;DHT22;7258;50.376;8.742;2023-07-09T07:40:11;27.90;89.60
14349;DHT22;7258;50.376;8.742;2023-07-09T07:42:14;28.00;89.50
14349;DHT22;7258;50.376;8.742;2023-07-09T07:44:17;28.00;89.40
14349;DHT22;7258;50.376;8.742;2023-07-09T07:46:20;28.20;89.50
14349;DHT22;7258;50.376;8.742;2023-07-09T07:48:23;28.30;89.80
14349;DHT22;7258;50.376;8.742;2023-07-09T07:50:26;28.40;88.80
14349;DHT22;7258;50.376;8.742;2023-07-09T07:52:29;28.40;88.70
14349;DHT22;7258;50.376;8.742;2023-07-09T07:54:32;28.40;88.80
14349;DHT22;7258;50.376;8.742;2023-07-09T07:56:36;28.60;88.80
14349;DHT22;7258;50.376;8.742;2023-07-09T07:58:41;28.70;87.90
14349;DHT22;7258;50.376;8.742;2023-07-09T08:00:44;28.90;87.20
14349;DHT22;7258;50.376;8.742;2023-07-09T08:02:47;29.00;86.70
14349;DHT22;7258;50.376;8.742;2023-07-09T08:04:52;29.20;86.00
14349;DHT22;7258;50.376;8.742;2023-07-09T08:06:55;29.20;86.20
14349;DHT22;7258;50.376;8.742;2023-07-09T08:08:58;29.40;86.00
14349;DHT22;7258;50.376;8.742;2023-07-09T08:11:03;29.50;84.60
14349;DHT22;7258;50.376;8.742;2023-07-09T08:13:09;29.60;84.60
14349;DHT22;7258;50.376;8.742;2023-07-09T08:15:12;29.60;84.00
14349;DHT22;7258;50.376;8.742;2023-07-09T08:17:15;29.70;84.00
14349;DHT22;7258;50.376;8.742;2023-07-09T08:19:19;29.80;83.30
14349;DHT22;7258;50.376;8.742;2023-07-09T08:21:22;29.90;82.80
14349;DHT22;7258;50.376;8.742;2023-07-09T08:23:24;29.80;83.20
14349;DHT22;7258;50.376;8.742;2023-07-09T08:25:27;29.80;83.30
14349;DHT22;7258;50.376;8.742;2023-07-09T08:27:30;29.90;83.20
14349;DHT22;7258;50.376;8.742;2023-07-09T08:29:35;30.00;82.00
14349;DHT22;7258;50.376;8.742;2023-07-09T08:31:37;30.20;82.70
14349;DHT22;7258;50.376;8.742;2023-07-09T08:33:43;30.30;81.40
14349;DHT22;7258;50.376;8.742;2023-07-09T08:35:48;30.40;81.10
14349;DHT22;7258;50.376;8.742;2023-07-09T08:37:51;30.60;80.70
14349;DHT22;7258;50.376;8.742;2023-07-09T08:39:54;30.70;79.90
14349;DHT22;7258;50.376;8.742;2023-07-09T08:41:59;30.70;80.00
14349;DHT22;7258;50.376;8.742;2023-07-09T08:44:17;30.90;79.40
14349;DHT22;7258;50.376;8.742;2023-07-09T08:46:31;31.00;79.40
14349;DHT22;7258;50.376;8.742;2023-07-09T08:48:43;31.10;79.00
14349;DHT22;7258;50.376;8.742;2023-07-09T08:50:50;31.20;78.00
14349;DHT22;7258;50.376;8.742;2023-07-09T08:52:55;31.40;77.70
14349;DHT22;7258;50.376;8.742;2023-07-09T08:55:04;31.50;76.60
14349;DHT22;7258;50.376;8.742;2023-07-09T08:57:16;31.60;75.40
14349;DHT22;7258;50.376;8.742;2023-07-09T08:59:20;31.70;75.10
14349;DHT22;7258;50.376;8.742;2023-07-09T09:01:30;31.70;74.60
14349;DHT22;7258;50.376;8.742;2023-07-09T09:03:37;31.70;73.90
14349;DHT22;7258;50.376;8.742;2023-07-09T09:05:43;31.80;73.60
14349;DHT22;7258;50.376;8.742;2023-07-09T09:07:51;31.90;73.90
14349;DHT22;7258;50.376;8.742;2023-07-09T09:09:58;32.00;73.70
14349;DHT22;7258;50.376;8.742;2023-07-09T09:12:11;32.10;73.50
14349;DHT22;7258;50.376;8.742;2023-07-09T09:14:25;32.30;74.10
14349;DHT22;7258;50.376;8.742;2023-07-09T09:16:33;32.40;73.30
14349;DHT22;7258;50.376;8.742;2023-07-09T09:18:41;32.40;72.10
14349;DHT22;7258;50.376;8.742;2023-07-09T09:20:47;32.40;71.70
14349;DHT22;7258;50.376;8.742;2023-07-09T09:22:56;32.50;72.00
14349;DHT22;7258;50.376;8.742;2023-07-09T09:25:05;32.60;71.30
14349;DHT22;7258;50.376;8.742;2023-07-09T09:27:14;32.70;70.80
14349;DHT22;7258;50.376;8.742;2023-07-09T09:29:16;32.70;72.50
14349;DHT22;7258;50.376;8.742;2023-07-09T09:31:19;32.70;72.30
14349;DHT22;7258;50.376;8.742;2023-07-09T09:33:24;32.80;72.20
14349;DHT22;7258;50.376;8.742;2023-07-09T09:35:29;32.90;71.40
14349;DHT22;7258;50.376;8.742;2023-07-09T09:37:32;32.90;71.20
14349;DHT22;7258;50.376;8.742;2023-07-09T09:39:38;33.00;71.10
14349;DHT22;7258;50.376;8.742;2023-07-09T09:41:43;33.10;71.10
14349;DHT22;7258;50.376;8.742;2023-07-09T09:43:48;33.20;70.70
14349;DHT22;7258;50.376;8.742;2023-07-09T09:45:51;33.30;70.40
14349;DHT22;7258;50.376;8.742;2023-07-09T09:47:59;33.40;70.60
14349;DHT22;7258;50.376;8.742;2023-07-09T09:50:05;33.50;70.80
14349;DHT22;7258;50.376;8.742;2023-07-09T09:52:12;33.60;70.40
14349;DHT22;7258;50.376;8.742;2023-07-09T09:54:18;33.70;70.30
14349;DHT22;7258;50.376;8.742;2023-07-09T09:56:26;33.80;70.00
14349;DHT22;7258;50.376;8.742;2023-07-09T09:58:30;33.90;70.10
14349;DHT22;7258;50.376;8.742;2023-07-09T10:00:34;33.90;69.70
14349;DHT22;7258;50.376;8.742;2023-07-09T10:02:39;33.90;70.00
14349;DHT22;7258;50.376;8.742;2023-07-09T10:04:43;33.80;70.10
14349;DHT22;7258;50.376;8.742;2023-07-09T10:06:50;33.90;69.70
14349;DHT22;7258;50.376;8.742;2023-07-09T10:08:59;33.90;69.40
14349;DHT22;7258;50.376;8.742;2023-07-09T10:11:21;33.80;70.00
14349;DHT22;7258;50.376;8.742;2023-07-09T10:13:30;33.80;70.00
14349;DHT22;7258;50.376;8.742;2023-07-09T10:15:41;33.80;69.70
14349;DHT22;7258;50.376;8.742;2023-07-09T10:17:53;33.90;71.00
14349;DHT22;7258;50.376;8.742;2023-07-09T10:20:01;33.90;70.50
14349;DHT22;7258;50.376;8.742;2023-07-09T10:22:11;34.00;70.30
14349;DHT22;7258;50.376;8.742;2023-07-09T10:24:34;34.20;70.10
14349;DHT22;7258;50.376;8.742;2023-07-09T10:26:43;34.40;70.00
14349;DHT22;7258;50.376;8.742;2023-07-09T10:29:03;34.50;69.70
14349;DHT22;7258;50.376;8.742;2023-07-09T10:31:16;34.60;69.00
14349;DHT22;7258;50.376;8.742;2023-07-09T10:33:25;34.40;69.00
14349;DHT22;7258;50.376;8.742;2023-07-09T10:35:37;34.50;68.10
14349;DHT22;7258;50.376;8.742;2023-07-09T10:37:53;34.70;68.20
14349;DHT22;7258;50.376;8.742;2023-07-09T10:39:59;34.80;67.40
14349;DHT22;7258;50.376;8.742;2023-07-09T10:42:10;34.90;67.00
14349;DHT22;7258;50.376;8.742;2023-07-09T10:44:18;35.10;66.50
14349;DHT22;7258;50.376;8.742;2023-07-09T10:46:25;35.10;66.50
14349;DHT22;7258;50.376;8.742;2023-07-09T10:48:35;35.10;66.50
14349;DHT22;7258;50.376;8.742;2023-07-09T10:50:41;35.20;66.10
14349;DHT22;7258;50.376;8.742;2023-07-09T10:52:47;35.30;66.00
14349;DHT22;7258;50.376;8.742;2023-07-09T10:54:58;35.40;65.90
14349;DHT22;7258;50.376;8.742;2023-07-09T10:57:10;35.40;66.00
14349;DHT22;7258;50.376;8.742;2023-07-09T10:59:21;35.40;65.00
14349;DHT22;7258;50.376;8.742;2023-07-09T11:01:29;35.50;64.70
14349;DHT22;7258;50.376;8.742;2023-07-09T11:03:38;35.60;64.30
14349;DHT22;7258;50.376;8.742;2023-07-09T11:05:45;35.70;63.80
14349;DHT22;7258;50.376;8.742;2023-07-09T11:08:00;35.80;63.60
14349;DHT22;7258;50.376;8.742;2023-07-09T11:10:14;35.90;63.20
14349;DHT22;7258;50.376;8.742;2023-07-09T11:12:24;35.90;63.60
14349;DHT22;7258;50.376;8.742;2023-07-09T11:14:33;35.90;62.80
14349;DHT22;7258;50.376;8.742;2023-07-09T11:16:41;36.00;63.00
14349;DHT22;7258;50.376;8.742;2023-07-09T11:18:55;36.10;62.90
14349;DHT22;7258;50.376;8.742;2023-07-09T11:21:00;36.20;61.80
14349;DHT22;7258;50.376;8.742;2023-07-09T11:23:17;36.30;61.60
14349;DHT22;7258;50.376;8.742;2023-07-09T11:25:39;36.40;62.10
14349;DHT22;7258;50.376;8.742;2023-07-09T11:27:51;36.50;60.60
14349;DHT22;7258;50.376;8.742;2023-07-09T11:29:59;36.50;60.70
14349;DHT22;7258;50.376;8.742;2023-07-09T11:32:08;36.40;60.40
14349;DHT22;7258;50.376;8.742;2023-07-09T11:34:17;36.20;60.80
14349;DHT22;7258;50.376;8.742;2023-07-09T11:36:26;36.00;61.40
14349;DHT22;7258;50.376;8.742;2023-07-09T11:38:39;36.10;60.60
14349;DHT22;7258;50.376;8.742;2023-07-09T11:40:48;36.20;61.10
14349;DHT22;7258;50.376;8.742;2023-07-09T11:42:53;36.40;60.30
14349;DHT22;7258;50.376;8.742;2023-07-09T11:45:08;36.50;59.50
14349;DHT22;7258;50.376;8.742;2023-07-09T11:47:19;36.60;59.60
14349;DHT22;7258;50.376;8.742;2023-07-09T11:49:25;36.70;59.70
14349;DHT22;7258;50.376;8.742;2023-07-09T11:51:37;36.70;59.50
14349;DHT22;7258;50.376;8.742;2023-07-09T11:53:46;36.70;58.70
14349;DHT22;7258;50.376;8.742;2023-07-09T11:55:50;36.20;58.80
14349;DHT22;7258;50.376;8.742;2023-07-09T11:57:56;36.10;59.00
14349;DHT22;7258;50.376;8.742;2023-07-09T11:59:59;36.20;58.90
14349;DHT22;7258;50.376;8.742;2023-07-09T12:02:03;36.30;58.80
14349;DHT22;7258;50.376;8.742;2023-07-09T12:04:12;36.50;58.60
14349;DHT22;7258;50.376;8.742;2023-07-09T12:06:20;36.60;58.50
14349;DHT22;7258;50.376;8.742;2023-07-09T12:08:28;36.70;58.80
14349;DHT22;7258;50.376;8.742;2023-07-09T12:10:35;36.70;58.20
14349;DHT22;7258;50.376;8.742;2023-07-09T12:12:41;36.90;57.40
14349;DHT22;7258;50.376;8.742;2023-07-09T12:14:44;36.90;57.20
14349;DHT22;7258;50.376;8.742;2023-07-09T12:16:49;37.00;57.10
14349;DHT22;7258;50.376;8.742;2023-07-09T12:18:53;37.00;56.60
14349;DHT22;7258;50.376;8.742;2023-07-09T12:20:56;37.00;56.90
14349;DHT22;7258;50.376;8.742;2023-07-09T12:23:00;37.10;56.60
14349;DHT22;7258;50.376;8.742;2023-07-09T12:25:18;37.20;56.80
14349;DHT22;7258;50.376;8.742;2023-07-09T12:27:25;37.30;55.40
14349;DHT22;7258;50.376;8.742;2023-07-09T12:29:30;37.40;55.40
14349;DHT22;7258;50.376;8.742;2023-07-09T12:31:33;37.50;55.70
14349;DHT22;7258;50.376;8.742;2023-07-09T12:33:36;37.50;55.40
14349;DHT22;7258;50.376;8.742;2023-07-09T12:35:40;37.50;55.50
14349;DHT22;7258;50.376;8.742;2023-07-09T12:37:46;37.60;55.90
14349;DHT22;7258;50.376;8.742;2023-07-09T12:39:50;37.60;55.90
14349;DHT22;7258;50.376;8.742;2023-07-09T12:41:55;37.40;56.50
14349;DHT22;7258;50.376;8.742;2023-07-09T12:44:00;37.50;56.40
14349;DHT22;7258;50.376;8.742;2023-07-09T12:46:03;37.60;54.90
14349;DHT22;7258;50.376;8.742;2023-07-09T12:48:07;37.40;54.20
14349;DHT22;7258;50.376;8.742;2023-07-09T12:50:21;37.40;54.40
14349;DHT22;7258;50.376;8.742;2023-07-09T12:52:24;37.50;54.30
14349;DHT22;7258;50.376;8.742;2023-07-09T12:54:29;37.60;54.50
14349;DHT22;7258;50.376;8.742;2023-07-09T12:56:34;37.70;54.10
14349;DHT22;7258;50.376;8.742;2023-07-09T12:58:37;37.70;54.40
14349;DHT22;7258;50.376;8.742;2023-07-09T13:00:47;37.60;54.90
14349;DHT22;7258;50.376;8.742;2023-07-09T13:02:54;37.70;55.00
14349;DHT22;7258;50.376;8.742;2023-07-09T13:05:00;37.60;55.40
14349;DHT22;7258;50.376;8.742;2023-07-09T13:07:26;37.60;54.50
14349;DHT22;7258;50.376;8.742;2023-07-09T13:09:30;37.80;54.10
14349;DHT22;7258;50.376;8.742;2023-07-09T13:11:34;38.00;53.80
14349;DHT22;7258;50.376;8.742;2023-07-09T13:13:38;38.00;53.40
14349;DHT22;7258;50.376;8.742;2023-07-09T13:15:46;37.90;53.20
14349;DHT22;7258;50.376;8.742;2023-07-09T13:17:56;37.90;53.40
14349;DHT22;7258;50.376;8.742;2023-07-09T13:19:59;37.90;53.70
14349;DHT22;7258;50.376;8.742;2023-07-09T13:22:10;37.70;53.90
14349;DHT22;7258;50.376;8.742;2023-07-09T13:24:19;37.50;53.50